KAJZ

Blake Field Airport

Delta, Colorado, USA
METAR KAJZ 191235Z AUTO 06007KT 10SM CLR 15/M01 A2999 RMK AO2 T01481006
Observed Flight Rules
Sep-19 @ 12:35 UTC (21 minutes ago) Visual Flight Rules
Wind Visibility Clouds
60° at 7 knots 10 miles
  • Clear skies
Temperatures Readings
Current 15°C / 59°F
Dewpoint -1°C / 30°F
Humidity 34%
Altimeter 29.99" Hg
Pressure 1016 hPa
Elevation 1583
METAR KAJZ 191235Z AUTO 06007KT 10SM CLR 15/M01 A2999 RMK AO2 T01481006
Observed Flight Rules
Sep-19 @ 12:35 UTC
(21 minutes ago)
VFR
Wind Visibility
60° at 7 knots 10 miles
Clouds
  • Clear skies
Temperature Dewpoint
15°C / 59°F -1°C / 30°F
Humidity Altimeter Pressure
34% 29.99" Hg 1016 hPa